Oceanic Odyssey — C6OZ3 — position and weather

sailwx.info

Track history (hours):
 
Tides and Currents Weather Stations Pressure Air Temp Water Temp Dewpoint Dewpoint Depression Visibility Wind Speed Wind Dir Waves Ship Positions

Oceanic Odyssey

Last reported at 2016-Jan-28 07:28 UTC. Time now 2016-Feb-14 05:52 UTC.
Position S 35°53' E 175°24'.
Warning: this ship's position is 16 days out of date.

Length 103 m; draft 4.6 m.

Type: Passenger vessel. MMSI: 309913000.

Date/timePositionNaut miles runAvg speedWind from/ knotsBaromVisibWave heightAir tempDewpointWater temp
2016-Jan-28 07:28S 35°53' E 175°24'37 1.6
2016-Jan-27 08:33S 36°24' E 174°59'1211.5
2016-Jan-27 07:33S 36°36' E 174°58'1310.1
2016-Jan-27 06:16S 36°46' E 174°48'5 1.2
2016-Jan-27 02:08S 36°50' E 174°46'0 0.0
2016-Jan-27 01:25S 36°50' E 174°46'0 0.0
2016-Jan-27 00:31S 36°50' E 174°46'0 0.0
2016-Jan-26 23:31S 36°50' E 174°46'0 0.0
2016-Jan-26 22:31S 36°50' E 174°46'0 0.0
2016-Jan-26 21:25S 36°50' E 174°46'0 0.0
2016-Jan-26 20:31S 36°50' E 174°46'0 0.2
2016-Jan-26 19:33S 36°50' E 174°46'7 6.7
2016-Jan-26 18:33S 36°44' E 174°50'1 0.9
2016-Jan-26 17:26S 36°43' E 174°51'4 4.5
2016-Jan-26 16:33S 36°40' E 174°54'1111.0
2016-Jan-26 15:34S 36°31' E 174°60'1211.9
2016-Jan-26 14:34S 36°19' E 174°58'  
Track history (hours):
 
Tides and Currents Weather Stations Pressure Air Temp Water Temp Dewpoint Dewpoint Depression Visibility Wind Speed Wind Dir Waves Ship Positions

Oceanic Odyssey

Last reported at 2016-Jan-28 07:28 UTC. Time now 2016-Feb-14 05:52 UTC.
Position S 35°53' E 175°24'.
Warning: this ship's position is 16 days out of date.

Length 103 m; draft 4.6 m.

Type: Passenger vessel. MMSI: 309913000.

Date/timePositionNaut miles runAvg speedWind from/ knotsBaromVisibWave heightAir tempDewpointWater temp
2016-Jan-28 07:28S 35°53' E 175°24'37 1.6
2016-Jan-27 08:33S 36°24' E 174°59'1211.5
2016-Jan-27 07:33S 36°36' E 174°58'1310.1
2016-Jan-27 06:16S 36°46' E 174°48'5 1.2
2016-Jan-27 02:08S 36°50' E 174°46'0 0.0
2016-Jan-27 01:25S 36°50' E 174°46'0 0.0
2016-Jan-27 00:31S 36°50' E 174°46'0 0.0
2016-Jan-26 23:31S 36°50' E 174°46'0 0.0
2016-Jan-26 22:31S 36°50' E 174°46'0 0.0
2016-Jan-26 21:25S 36°50' E 174°46'0 0.0
2016-Jan-26 20:31S 36°50' E 174°46'0 0.2
2016-Jan-26 19:33S 36°50' E 174°46'7 6.7
2016-Jan-26 18:33S 36°44' E 174°50'1 0.9
2016-Jan-26 17:26S 36°43' E 174°51'4 4.5
2016-Jan-26 16:33S 36°40' E 174°54'1111.0
2016-Jan-26 15:34S 36°31' E 174°60'1211.9
2016-Jan-26 14:34S 36°19' E 174°58'  

Dump ship's entire track history